createdAt,value
2023-05-05T00:02:19.843Z,99950.27
2023-05-05T00:04:47.029Z,99953.54
2023-05-05T00:07:15.576Z,99955.58
2023-05-05T00:09:43.278Z,99949.06
2023-05-05T00:12:10.431Z,99963.83
2023-05-05T00:14:37.589Z,99966.11
2023-05-05T00:17:05.600Z,99961.52
2023-05-05T00:19:32.714Z,99956.37
2023-05-05T00:21:59.858Z,99957.30
2023-05-05T00:24:27.432Z,99962.67
2023-05-05T00:26:54.491Z,99958.30
2023-05-05T00:29:21.931Z,99956.94
2023-05-05T00:31:52.148Z,99956.45
2023-05-05T00:34:20.338Z,99957.29
2023-05-05T00:36:47.589Z,99954.59
2023-05-05T00:39:15.362Z,99956.31
2023-05-05T00:41:42.836Z,99960.14
2023-05-05T00:44:09.974Z,99958.85
2023-05-05T00:46:37.786Z,99957.94
2023-05-05T00:49:05.006Z,99957.11
2023-05-05T00:51:32.251Z,99955.58
2023-05-05T00:53:59.405Z,99950.50
2023-05-05T00:56:27.602Z,99947.44
2023-05-05T00:58:54.945Z,99946.06
2023-05-05T01:01:22.120Z,99945.39
2023-05-05T01:03:49.315Z,99943.73
2023-05-05T01:06:37.590Z,99943.15
2023-05-05T01:09:17.348Z,99945.16
2023-05-05T01:12:11.330Z,99938.52
2023-05-05T01:14:47.484Z,99942.37
2023-05-05T01:17:17.579Z,99942.86
2023-05-05T01:19:48.853Z,99944.14
2023-05-05T01:22:15.910Z,99947.52
2023-05-05T01:25:04.677Z,99946.20
2023-05-05T01:27:47.993Z,99948.08
2023-05-05T01:31:03.587Z,99948.65
2023-05-05T01:33:36.162Z,99949.67
2023-05-05T01:36:05.974Z,99954.39
2023-05-05T01:38:37.325Z,99954.81
2023-05-05T01:41:08.058Z,99951.94
2023-05-05T01:43:35.523Z,99952.64
2023-05-05T01:46:02.839Z,99952.88
2023-05-05T01:48:30.338Z,99951.73
2023-05-05T01:50:57.490Z,99950.36
2023-05-05T01:53:24.952Z,99945.62
2023-05-05T01:55:52.413Z,99947.05
2023-05-05T01:58:19.566Z,99947.08
2023-05-05T02:00:46.723Z,99950.02
2023-05-05T02:03:14.006Z,99951.26
2023-05-05T02:05:41.235Z,99957.73
2023-05-05T02:08:10.321Z,99957.19
2023-05-05T02:10:38.919Z,99959.55
2023-05-05T02:13:06.194Z,99966.86
2023-05-05T02:15:34.069Z,99966.95
2023-05-05T02:18:01.703Z,99967.27
2023-05-05T02:20:28.882Z,99965.55
2023-05-05T02:22:56.014Z,99960.55
2023-05-05T02:25:24.189Z,99959.55
2023-05-05T02:27:51.346Z,99955.36
2023-05-05T02:30:18.709Z,99951.23
2023-05-05T02:32:53.788Z,99945.36
2023-05-05T02:35:23.587Z,99938.05
2023-05-05T02:38:00.166Z,99936.20
2023-05-05T02:40:28.206Z,99947.30
2023-05-05T02:42:56.644Z,99962.58
2023-05-05T02:45:27.634Z,99960.16
2023-05-05T02:47:54.838Z,99959.55
2023-05-05T02:50:22.160Z,99960.48
2023-05-05T02:52:55.849Z,99958.36
2023-05-05T02:55:23.308Z,99959.92
2023-05-05T02:58:08.487Z,99955.57
2023-05-05T03:00:47.824Z,99947.35
2023-05-05T03:03:41.308Z,99945.68
2023-05-05T03:06:15.277Z,99949.41
2023-05-05T03:08:46.763Z,99953.76
2023-05-05T03:11:36.459Z,99958.39
2023-05-05T03:14:09.148Z,99961.46
2023-05-05T03:16:37.163Z,99958.52
2023-05-05T03:19:05.173Z,99958.81
2023-05-05T03:21:32.945Z,99954.82
2023-05-05T03:24:00.327Z,99953.10
2023-05-05T03:26:27.551Z,99956.67
2023-05-05T03:28:55.219Z,99958.67
2023-05-05T03:31:28.770Z,99960.83
2023-05-05T03:33:58.343Z,99959.84
2023-05-05T03:36:29.394Z,99955.89
2023-05-05T03:38:58.383Z,99950.30
2023-05-05T03:41:26.369Z,99947.09
2023-05-05T03:43:53.804Z,99946.92
2023-05-05T03:46:20.992Z,99948.82
2023-05-05T03:48:48.931Z,99949.77
2023-05-05T03:51:16.536Z,99952.94
2023-05-05T03:53:44.056Z,99953.73
2023-05-05T03:56:11.416Z,99955.73
2023-05-05T03:58:38.776Z,99959.77
2023-05-05T04:01:06.028Z,99958.24
2023-05-05T04:03:33.272Z,99959.84
2023-05-05T04:06:01.464Z,99955.95
2023-05-05T04:08:29.235Z,99956.15
2023-05-05T04:10:57.728Z,99952.92
2023-05-05T04:13:25.079Z,99957.59
2023-05-05T04:15:52.727Z,99962.58
2023-05-05T04:18:20.200Z,99969.20
2023-05-05T04:20:47.560Z,99973.14
2023-05-05T04:23:14.918Z,99983.51
2023-05-05T04:25:42.390Z,99988.46
2023-05-05T04:28:09.981Z,99990.33
2023-05-05T04:30:37.669Z,99985.20
2023-05-05T04:33:05.085Z,99986.73
2023-05-05T04:35:33.655Z,99987.44
2023-05-05T04:38:01.424Z,99986.60
2023-05-05T04:40:28.983Z,99986.34
2023-05-05T04:42:56.546Z,99985.21
2023-05-05T04:45:24.211Z,99980.69
2023-05-05T04:47:51.838Z,99979.55
2023-05-05T04:50:19.237Z,99976.69
2023-05-05T04:52:46.399Z,99976.92
2023-05-05T04:55:13.640Z,99981.15
2023-05-05T04:57:41.002Z,99986.98
2023-05-05T05:00:09.919Z,99989.66
2023-05-05T05:02:37.994Z,99992.72
2023-05-05T05:05:05.682Z,99989.98
2023-05-05T05:07:33.630Z,99988.40
2023-05-05T05:10:02.402Z,99990.55
2023-05-05T05:12:29.589Z,99992.13
2023-05-05T05:14:57.013Z,99994.31
2023-05-05T05:17:25.231Z,99997.11
2023-05-05T05:19:52.652Z,100002.05
2023-05-05T05:22:19.913Z,100005.17
2023-05-05T05:24:47.669Z,99999.13
2023-05-05T05:27:14.832Z,99997.60
2023-05-05T05:29:44.146Z,100001.03
2023-05-05T05:32:11.712Z,100006.35
2023-05-05T05:34:39.253Z,100004.04
2023-05-05T05:37:07.329Z,100003.35
2023-05-05T05:39:34.484Z,100004.34
2023-05-05T05:42:03.068Z,100003.64
2023-05-05T05:44:30.732Z,100008.96
2023-05-05T05:46:57.891Z,100013.80
2023-05-05T05:49:25.247Z,100023.90
2023-05-05T05:51:52.601Z,100017.63
2023-05-05T05:54:19.714Z,100015.48
2023-05-05T05:56:46.909Z,100014.44
2023-05-05T05:59:14.178Z,100013.38
2023-05-05T06:01:41.731Z,100012.62
2023-05-05T06:04:09.297Z,100010.59
2023-05-05T06:06:38.080Z,100014.90
2023-05-05T06:09:05.666Z,100012.06
2023-05-05T06:11:35.254Z,100011.56
2023-05-05T06:14:02.711Z,100013.88
2023-05-05T06:16:30.179Z,100017.58
2023-05-05T06:18:58.056Z,100012.81
2023-05-05T06:21:25.299Z,100015.39
2023-05-05T06:23:52.461Z,100012.16
2023-05-05T06:26:19.908Z,100011.46
2023-05-05T06:28:47.065Z,100010.43
2023-05-05T06:31:14.682Z,100011.83
2023-05-05T06:33:41.990Z,100010.94
2023-05-05T06:36:09.493Z,100008.30
2023-05-05T06:38:38.041Z,100005.59
2023-05-05T06:41:05.706Z,100005.80
2023-05-05T06:43:32.960Z,100008.64
2023-05-05T06:46:01.678Z,100009.88
2023-05-05T06:48:28.793Z,100011.35
2023-05-05T06:50:56.773Z,100010.92
2023-05-05T06:53:23.916Z,100008.35
2023-05-05T06:55:51.270Z,100003.66
2023-05-05T06:58:18.435Z,100000.33
2023-05-05T07:00:45.595Z,99994.45
2023-05-05T07:03:13.006Z,99998.34
2023-05-05T07:05:40.290Z,99999.48
2023-05-05T07:08:09.283Z,100003.23
2023-05-05T07:10:36.641Z,100003.27
2023-05-05T07:13:03.765Z,100004.40
2023-05-05T07:15:31.460Z,100006.43
2023-05-05T07:17:58.811Z,100012.23
2023-05-05T07:20:26.173Z,100016.27
2023-05-05T07:24:27.233Z,100014.27
2023-05-05T07:26:54.385Z,100006.16
2023-05-05T07:29:21.542Z,100003.78
2023-05-05T07:31:48.693Z,100004.90
2023-05-05T07:34:15.954Z,99999.83
2023-05-05T07:36:43.096Z,99999.92
2023-05-05T07:39:10.374Z,100002.05
2023-05-05T07:41:37.623Z,99995.43
2023-05-05T07:44:04.863Z,99998.83
2023-05-05T07:46:32.082Z,100004.95
2023-05-05T07:48:59.270Z,100004.60
2023-05-05T07:51:26.932Z,100002.23
2023-05-05T07:53:54.598Z,99991.56
2023-05-05T07:56:21.973Z,100002.05
2023-05-05T07:58:49.219Z,100004.13
2023-05-05T08:01:17.086Z,100007.52
2023-05-05T08:03:44.393Z,100004.83
2023-05-05T08:06:11.591Z,99999.20
2023-05-05T08:08:38.745Z,100000.46
2023-05-05T08:11:06.952Z,99998.63
2023-05-05T08:13:34.584Z,99998.57
2023-05-05T08:16:01.823Z,99993.93
2023-05-05T08:18:29.202Z,99997.16
2023-05-05T08:20:56.863Z,99995.36
2023-05-05T08:23:23.977Z,99997.63
2023-05-05T08:25:52.597Z,99995.40
2023-05-05T08:28:19.873Z,99998.45
2023-05-05T08:30:47.439Z,99994.18
2023-05-05T08:33:14.596Z,99993.16
2023-05-05T08:35:42.816Z,99991.37
2023-05-05T08:38:11.108Z,99990.48
2023-05-05T08:40:39.434Z,99985.65
2023-05-05T08:43:06.553Z,99985.73
2023-05-05T08:45:33.703Z,99983.56
2023-05-05T08:48:02.235Z,99986.88
2023-05-05T08:50:29.545Z,99984.13
2023-05-05T08:53:10.837Z,99987.45
2023-05-05T08:55:56.305Z,99987.62
2023-05-05T08:58:23.666Z,99985.16
2023-05-05T09:00:51.272Z,99984.15
2023-05-05T09:03:18.789Z,99981.14
2023-05-05T09:05:46.243Z,99979.34
2023-05-05T09:08:13.608Z,99983.35
2023-05-05T09:10:41.278Z,99976.86
2023-05-05T09:13:08.550Z,99970.02
2023-05-05T09:15:35.763Z,99982.98
2023-05-05T09:18:03.947Z,99980.35
2023-05-05T09:20:35.848Z,99974.67
2023-05-05T09:23:19.605Z,99974.52
2023-05-05T09:25:48.500Z,99972.71
2023-05-05T09:28:16.960Z,99969.25
2023-05-05T09:30:46.378Z,99963.09
2023-05-05T09:33:13.810Z,99963.33
2023-05-05T09:35:51.487Z,99961.08
2023-05-05T09:38:24.513Z,99963.77
2023-05-05T09:40:52.989Z,99960.78
2023-05-05T09:43:22.466Z,99962.20
2023-05-05T09:45:50.149Z,99961.80
2023-05-05T09:48:43.810Z,99960.29
2023-05-05T09:51:10.949Z,99965.40
2023-05-05T09:53:42.208Z,99962.60
2023-05-05T09:56:09.473Z,99964.08
2023-05-05T09:58:36.645Z,99961.94
2023-05-05T10:01:03.810Z,99952.94
2023-05-05T10:03:31.324Z,99950.73
2023-05-05T10:05:59.803Z,99953.87
2023-05-05T10:08:31.672Z,99949.03
2023-05-05T10:11:01.187Z,99943.78
2023-05-05T10:13:28.324Z,99937.73
2023-05-05T10:15:56.727Z,99936.93
2023-05-05T10:18:25.269Z,99938.61
2023-05-05T10:20:58.627Z,99934.89
2023-05-05T10:23:40.274Z,99932.33
2023-05-05T10:26:08.190Z,99922.71
2023-05-05T10:28:44.931Z,99917.20
2023-05-05T10:31:25.841Z,99918.07
2023-05-05T10:34:04.270Z,99922.21
2023-05-05T10:36:32.093Z,99922.41
2023-05-05T10:38:59.441Z,99918.02
2023-05-05T10:41:29.461Z,99920.99
2023-05-05T10:44:02.872Z,99928.73
2023-05-05T10:46:31.683Z,99926.35
2023-05-05T10:49:18.366Z,99925.55
2023-05-05T10:51:54.724Z,99922.27
2023-05-05T10:54:30.628Z,99919.50
2023-05-05T10:56:58.664Z,99917.36
2023-05-05T10:59:38.225Z,99917.33
2023-05-05T11:02:24.874Z,99917.74
2023-05-05T11:05:14.552Z,99912.82
2023-05-05T11:07:42.455Z,99912.80
2023-05-05T11:10:13.846Z,99907.84
2023-05-05T11:13:00.308Z,99910.84
2023-05-05T11:15:27.663Z,99902.48
2023-05-05T11:17:55.941Z,99897.94
2023-05-05T11:20:36.202Z,99894.48
2023-05-05T11:23:03.439Z,99890.27
2023-05-05T11:25:39.423Z,99886.87
2023-05-05T11:28:21.215Z,99889.05
2023-05-05T11:31:00.608Z,99885.47
2023-05-05T11:33:30.970Z,99889.36
2023-05-05T11:35:58.667Z,99888.34
2023-05-05T11:38:41.464Z,99886.61
2023-05-05T11:41:14.229Z,99881.96
2023-05-05T11:43:44.149Z,99876.75
2023-05-05T11:46:15.715Z,99874.09
2023-05-05T11:48:48.786Z,99870.65
2023-05-05T11:51:16.772Z,99872.66
2023-05-05T11:53:44.577Z,99869.89
2023-05-05T11:56:12.207Z,99867.92
2023-05-05T11:58:39.445Z,99863.18
2023-05-05T12:01:07.514Z,99861.59
2023-05-05T12:03:38.296Z,99854.55
2023-05-05T12:06:06.323Z,99849.92
2023-05-05T12:08:39.702Z,99843.98
2023-05-05T12:11:08.210Z,99842.73
2023-05-05T12:13:35.655Z,99832.85
2023-05-05T12:16:13.147Z,99835.71
2023-05-05T12:18:41.022Z,99836.09
2023-05-05T12:21:17.842Z,99835.45
2023-05-05T12:23:45.147Z,99834.05
2023-05-05T12:26:29.244Z,99834.41
2023-05-05T12:28:59.882Z,99834.13
2023-05-05T12:31:36.442Z,99839.42
2023-05-05T12:34:04.497Z,99834.30
2023-05-05T12:36:35.909Z,99829.58
2023-05-05T12:39:05.458Z,99830.07
2023-05-05T12:41:33.314Z,99832.82
2023-05-05T12:44:03.522Z,99828.98
2023-05-05T12:46:32.239Z,99819.93
2023-05-05T12:49:05.235Z,99819.61
2023-05-05T12:51:33.372Z,99816.13
2023-05-05T12:54:04.615Z,99812.42
2023-05-05T12:56:41.586Z,99817.81
2023-05-05T12:59:21.277Z,99815.43
2023-05-05T13:01:49.306Z,99817.45
2023-05-05T13:04:16.974Z,99820.60
2023-05-05T13:06:46.201Z,99816.89
2023-05-05T13:09:24.404Z,99815.45
2023-05-05T13:11:51.841Z,99809.27
2023-05-05T13:14:18.993Z,99806.65
2023-05-05T13:16:46.163Z,99808.09
2023-05-05T13:19:13.398Z,99805.91
2023-05-05T13:21:40.459Z,99800.38
2023-05-05T13:24:25.371Z,99810.29
2023-05-05T13:26:56.149Z,99812.70
2023-05-05T13:29:26.109Z,99807.85
2023-05-05T13:31:55.782Z,99810.31
2023-05-05T13:34:23.040Z,99807.33
2023-05-05T13:36:50.492Z,99810.53
2023-05-05T13:39:17.647Z,99807.61
2023-05-05T13:41:45.504Z,99804.92
2023-05-05T13:44:14.185Z,99805.23
2023-05-05T13:46:42.852Z,99802.27
2023-05-05T13:49:10.030Z,99804.51
2023-05-05T13:51:38.621Z,99804.97
2023-05-05T13:54:06.793Z,99801.86
2023-05-05T13:56:34.762Z,99804.67
2023-05-05T13:59:02.720Z,99801.96
2023-05-05T14:01:30.455Z,99798.47
2023-05-05T14:03:58.163Z,99799.90
2023-05-05T14:06:26.379Z,99799.02
2023-05-05T14:08:53.888Z,99796.60
2023-05-05T14:11:21.656Z,99796.29
2023-05-05T14:13:49.138Z,99790.46
2023-05-05T14:16:16.316Z,99784.04
2023-05-05T14:18:43.527Z,99788.23
2023-05-05T14:21:10.862Z,99793.92
2023-05-05T14:23:38.022Z,99794.27
2023-05-05T14:26:05.288Z,99790.74
2023-05-05T14:28:32.450Z,99792.33
2023-05-05T14:30:59.577Z,99788.94
2023-05-05T14:33:26.740Z,99785.50
2023-05-05T14:35:53.917Z,99785.71
2023-05-05T14:38:21.102Z,99785.23
2023-05-05T14:40:48.486Z,99783.42
2023-05-05T14:43:15.736Z,99781.10
2023-05-05T14:45:44.409Z,99779.60
2023-05-05T14:48:11.691Z,99779.71
2023-05-05T14:50:42.734Z,99778.11
2023-05-05T14:53:09.874Z,99775.42
2023-05-05T14:55:37.415Z,99770.33
2023-05-05T14:58:04.586Z,99774.43
2023-05-05T15:00:31.735Z,99775.63
2023-05-05T15:02:58.936Z,99775.98
2023-05-05T15:05:26.144Z,99778.65
2023-05-05T15:07:53.293Z,99783.70
2023-05-05T15:10:21.976Z,99783.95
2023-05-05T15:12:49.707Z,99781.52
2023-05-05T15:15:17.201Z,99786.35
2023-05-05T15:17:44.359Z,99783.04
2023-05-05T15:20:12.117Z,99789.45
2023-05-05T15:22:39.277Z,99784.08
2023-05-05T15:25:11.108Z,99789.71
2023-05-05T15:27:39.806Z,99784.98
2023-05-05T15:30:09.117Z,99787.29
2023-05-05T15:32:36.411Z,99784.15
2023-05-05T15:35:03.743Z,99787.83
2023-05-05T15:37:30.891Z,99785.80
2023-05-05T15:39:58.021Z,99786.39
2023-05-05T15:42:25.172Z,99788.69
2023-05-05T15:44:52.457Z,99790.65
2023-05-05T15:47:19.688Z,99794.16
2023-05-05T15:49:46.829Z,99794.58
2023-05-05T15:52:14.291Z,99798.77
2023-05-05T15:54:41.754Z,99799.91
2023-05-05T15:57:11.658Z,99799.78
2023-05-05T15:59:38.822Z,99795.95
2023-05-05T16:02:06.207Z,99802.84
2023-05-05T16:04:33.633Z,99809.52
2023-05-05T16:07:01.701Z,99811.15
2023-05-05T16:09:29.053Z,99811.41
2023-05-05T16:11:56.200Z,99810.23
2023-05-05T16:14:23.349Z,99813.77
2023-05-05T16:16:50.526Z,99817.55
2023-05-05T16:19:18.478Z,99817.08
2023-05-05T16:21:45.929Z,99813.08
2023-05-05T16:24:16.719Z,99814.31
2023-05-05T16:26:44.234Z,99818.77
2023-05-05T16:29:11.479Z,99818.63
2023-05-05T16:31:38.970Z,99819.63
2023-05-05T16:34:06.294Z,99820.23
2023-05-05T16:36:33.461Z,99822.31
2023-05-05T16:39:00.805Z,99829.41
2023-05-05T16:41:28.081Z,99828.14
2023-05-05T16:43:55.723Z,99828.83
2023-05-05T16:46:22.891Z,99829.81
2023-05-05T16:48:50.021Z,99830.09
2023-05-05T16:51:17.264Z,99835.60
2023-05-05T16:53:44.421Z,99838.45
2023-05-05T16:56:13.008Z,99840.98
2023-05-05T16:58:40.566Z,99843.44
2023-05-05T17:01:07.725Z,99848.14
2023-05-05T17:03:34.990Z,99850.85
2023-05-05T17:06:02.168Z,99849.98
2023-05-05T17:08:29.372Z,99844.51
2023-05-05T17:10:56.524Z,99850.63
2023-05-05T17:13:23.780Z,99852.89
2023-05-05T17:15:51.682Z,99852.20
2023-05-05T17:18:22.074Z,99851.95
2023-05-05T17:20:49.739Z,99852.16
2023-05-05T17:23:16.895Z,99852.91
2023-05-05T17:25:44.145Z,99853.03
2023-05-05T17:28:11.499Z,99856.66
2023-05-05T17:30:38.649Z,99858.91
2023-05-05T17:33:06.079Z,99860.60
2023-05-05T17:35:33.281Z,99859.77
2023-05-05T17:38:00.522Z,99861.77
2023-05-05T17:40:27.686Z,99864.45
2023-05-05T17:42:54.929Z,99864.01
2023-05-05T17:45:22.079Z,99867.37
2023-05-05T17:47:49.204Z,99870.10
2023-05-05T17:50:17.809Z,99872.98
2023-05-05T17:52:46.701Z,99868.31
2023-05-05T17:55:13.864Z,99873.42
2023-05-05T17:57:41.114Z,99876.77
2023-05-05T18:00:09.501Z,99878.39
2023-05-05T18:02:42.645Z,99878.80
2023-05-05T18:05:11.061Z,99881.67
2023-05-05T18:07:38.933Z,99883.48
2023-05-05T18:10:11.022Z,99889.39
2023-05-05T18:12:38.193Z,99891.45
2023-05-05T18:15:06.024Z,99896.10
2023-05-05T18:17:33.178Z,99898.96
2023-05-05T18:20:00.328Z,99902.48
2023-05-05T18:22:27.581Z,99902.05
2023-05-05T18:24:59.246Z,99898.59
2023-05-05T18:27:28.454Z,99900.23
2023-05-05T18:29:55.703Z,99902.23
2023-05-05T18:32:23.505Z,99902.92
2023-05-05T18:34:50.722Z,99902.45
2023-05-05T18:37:17.874Z,99916.21
2023-05-05T18:39:45.536Z,99911.34
2023-05-05T18:42:13.314Z,99913.75
2023-05-05T18:44:40.448Z,99914.82
2023-05-05T18:47:08.264Z,99912.98
2023-05-05T18:49:35.588Z,99915.92
2023-05-05T18:52:02.729Z,99911.97
2023-05-05T18:54:29.888Z,99910.34
2023-05-05T18:56:57.644Z,99910.66
2023-05-05T18:59:24.795Z,99911.72
2023-05-05T19:01:52.157Z,99910.30
2023-05-05T19:04:30.215Z,99906.41
2023-05-05T19:06:59.556Z,99909.05
2023-05-05T19:09:26.815Z,99911.14
2023-05-05T19:11:55.709Z,99910.48
2023-05-05T19:14:22.977Z,99910.34
2023-05-05T19:16:50.126Z,99917.25
2023-05-05T19:19:17.374Z,99917.20
2023-05-05T19:21:44.736Z,99917.17
2023-05-05T19:24:12.010Z,99917.27
2023-05-05T19:26:39.236Z,99916.45
2023-05-05T19:29:06.715Z,99926.33
2023-05-05T19:31:33.877Z,99921.68
2023-05-05T19:34:02.957Z,99922.69
2023-05-05T19:36:33.687Z,99925.38
2023-05-05T19:42:02.802Z,99920.74
2023-05-05T19:44:29.952Z,99920.94
2023-05-05T19:46:57.104Z,99921.77
2023-05-05T19:49:24.260Z,99925.64
2023-05-05T19:51:52.330Z,99926.14
2023-05-05T19:54:19.486Z,99926.95
2023-05-05T19:56:46.634Z,99928.70
2023-05-05T19:59:13.799Z,99929.39
2023-05-05T20:01:40.994Z,99925.94
2023-05-05T20:04:08.197Z,99925.27
2023-05-05T20:06:36.576Z,99926.33
2023-05-05T20:09:04.329Z,99932.93
2023-05-05T20:11:31.503Z,99935.73
2023-05-05T20:13:58.962Z,99941.20
2023-05-05T20:16:26.183Z,99936.77
2023-05-05T20:18:53.575Z,99943.09
2023-05-05T20:21:22.371Z,99941.86
2023-05-05T20:23:49.613Z,99945.08
2023-05-05T20:26:17.282Z,99944.92
2023-05-05T20:28:45.975Z,99949.49
2023-05-05T20:31:14.443Z,99953.27
2023-05-05T20:33:41.707Z,99957.42
2023-05-05T20:36:08.866Z,99954.85
2023-05-05T20:38:36.224Z,99952.05
2023-05-05T20:41:03.694Z,99953.31
2023-05-05T20:43:30.836Z,99952.63
2023-05-05T20:45:58.097Z,99960.30
2023-05-05T20:48:25.244Z,99969.02
2023-05-05T20:50:52.493Z,99966.36
2023-05-05T20:53:21.324Z,99960.77
2023-05-05T20:55:49.981Z,99969.69
2023-05-05T20:58:17.134Z,99965.14
2023-05-05T21:00:44.542Z,99968.63
2023-05-05T21:03:12.427Z,99965.28
2023-05-05T21:05:41.262Z,99970.59
2023-05-05T21:08:08.394Z,99978.08
2023-05-05T21:10:36.234Z,99985.73
2023-05-05T21:13:03.443Z,99984.98
2023-05-05T21:15:30.876Z,99981.39
2023-05-05T21:17:58.045Z,99985.29
2023-05-05T21:20:25.182Z,99985.16
2023-05-05T21:22:52.336Z,99992.40
2023-05-05T21:25:20.912Z,99990.67
2023-05-05T21:27:48.613Z,99989.66
2023-05-05T21:30:16.194Z,99989.30
2023-05-05T21:32:44.066Z,99995.98
2023-05-05T21:35:11.599Z,99996.83
2023-05-05T21:37:41.622Z,100001.07
2023-05-05T21:40:13.885Z,100008.68
2023-05-05T21:42:42.037Z,100012.65
2023-05-05T21:45:11.104Z,100014.98
2023-05-05T21:47:38.236Z,100015.39
2023-05-05T21:50:06.019Z,100015.02
2023-05-05T21:52:33.230Z,100013.05
2023-05-05T21:55:00.582Z,100011.61
2023-05-05T21:57:27.848Z,100019.85
2023-05-05T21:59:54.995Z,100017.55
2023-05-05T22:02:22.408Z,100021.77
2023-05-05T22:04:52.886Z,100020.48
2023-05-05T22:07:20.037Z,100021.09
2023-05-05T22:09:47.301Z,100019.73
2023-05-05T22:12:14.444Z,100016.17
2023-05-05T22:14:41.603Z,100015.87
2023-05-05T22:17:08.963Z,100015.02
2023-05-05T22:19:36.209Z,100013.54
2023-05-05T22:22:03.360Z,100014.77
2023-05-05T22:24:30.523Z,100014.41
2023-05-05T22:26:58.484Z,100021.25
2023-05-05T22:29:25.648Z,100018.89
2023-05-05T22:31:52.936Z,100019.26
2023-05-05T22:34:22.176Z,100017.73
2023-05-05T22:36:49.555Z,100017.66
2023-05-05T22:39:18.763Z,100017.96
2023-05-05T22:41:46.349Z,100016.20
2023-05-05T22:44:13.695Z,100018.20
2023-05-05T22:46:41.151Z,100024.35
2023-05-05T22:49:08.973Z,100027.57
2023-05-05T22:51:36.165Z,100034.98
2023-05-05T22:54:03.633Z,100035.45
2023-05-05T22:56:30.897Z,100030.45
2023-05-05T22:58:58.029Z,100025.06
2023-05-05T23:01:25.348Z,100020.09
2023-05-05T23:03:52.575Z,100022.23
2023-05-05T23:06:19.798Z,100023.73
2023-05-05T23:08:46.964Z,100030.38
2023-05-05T23:11:14.105Z,100034.44
2023-05-05T23:13:41.258Z,100031.67
2023-05-05T23:16:08.479Z,100030.73
2023-05-05T23:18:36.288Z,100029.93
2023-05-05T23:21:03.436Z,100032.29
2023-05-05T23:23:31.287Z,100035.02
2023-05-05T23:25:58.357Z,100040.41
2023-05-05T23:28:25.617Z,100038.13
2023-05-05T23:30:52.898Z,100040.64
2023-05-05T23:33:20.245Z,100038.58
2023-05-05T23:35:47.684Z,100040.25
2023-05-05T23:38:14.842Z,100040.02
2023-05-05T23:40:41.995Z,100040.58
2023-05-05T23:43:09.045Z,100043.56
2023-05-05T23:45:36.198Z,100050.23
2023-05-05T23:48:03.515Z,100048.65
2023-05-05T23:50:31.133Z,100052.35
2023-05-05T23:52:58.276Z,100055.36
2023-05-05T23:55:25.750Z,100049.17
2023-05-05T23:57:53.599Z,100047.48
